createdAt,value
2019-03-17T00:00:50.526Z,36.22
2019-03-17T00:01:57.173Z,36.22
2019-03-17T00:02:50.431Z,36.22
2019-03-17T00:03:50.383Z,36.13
2019-03-17T00:04:50.335Z,36.13
2019-03-17T00:05:50.309Z,36.22
2019-03-17T00:06:50.240Z,36.51
2019-03-17T00:07:50.196Z,36.32
2019-03-17T00:08:50.144Z,36.32
2019-03-17T00:09:50.096Z,36.53
2019-03-17T00:10:52.542Z,36.32
2019-03-17T00:11:50.001Z,36.33
2019-03-17T00:12:50.053Z,36.32
2019-03-17T00:13:49.907Z,36.22
2019-03-17T00:14:49.858Z,36.32
2019-03-17T00:15:49.810Z,36.33
2019-03-17T00:16:49.762Z,36.33
2019-03-17T00:17:49.714Z,36.22
2019-03-17T00:18:49.668Z,36.51
2019-03-17T00:19:49.619Z,36.53
2019-03-17T00:20:49.570Z,36.60
2019-03-17T00:21:49.525Z,36.41
2019-03-17T00:22:49.476Z,36.41
2019-03-17T00:23:49.426Z,36.60
2019-03-17T00:24:49.382Z,36.22
2019-03-17T00:25:49.331Z,36.51
2019-03-17T00:26:49.285Z,36.51
2019-03-17T00:27:49.236Z,36.60
2019-03-17T00:28:49.188Z,36.62
2019-03-17T00:29:49.141Z,36.41
2019-03-17T00:30:49.093Z,36.41
2019-03-17T00:31:49.045Z,36.32
2019-03-17T00:32:48.996Z,36.32
2019-03-17T00:33:49.000Z,36.60
2019-03-17T00:34:50.881Z,36.41
2019-03-17T00:35:48.856Z,36.51
2019-03-17T00:36:48.805Z,36.60
2019-03-17T00:37:48.759Z,36.51
2019-03-17T00:38:48.710Z,36.60
2019-03-17T00:39:48.977Z,36.60
2019-03-17T00:40:48.665Z,36.51
2019-03-17T00:41:48.566Z,36.51
2019-03-17T00:42:48.837Z,36.60
2019-03-17T00:43:48.471Z,36.41
2019-03-17T00:44:48.423Z,36.51
2019-03-17T00:45:48.379Z,36.51
2019-03-17T00:46:48.328Z,36.51
2019-03-17T00:47:48.283Z,36.70
2019-03-17T00:48:48.232Z,36.51
2019-03-17T00:49:48.187Z,36.51
2019-03-17T00:50:49.082Z,36.51
2019-03-17T00:51:48.089Z,36.60
2019-03-17T00:52:48.041Z,36.70
2019-03-17T00:53:47.993Z,36.60
2019-03-17T00:54:48.000Z,36.60
2019-03-17T00:55:47.899Z,36.80
2019-03-17T00:56:47.849Z,36.60
2019-03-17T00:57:47.802Z,36.80
2019-03-17T00:58:47.755Z,36.99
2019-03-17T00:59:47.707Z,36.80
2019-03-17T01:00:47.659Z,36.41
2019-03-17T01:01:47.611Z,36.60
2019-03-17T01:02:47.563Z,36.51
2019-03-17T01:03:47.515Z,36.51
2019-03-17T01:04:56.050Z,36.91
2019-03-17T01:05:47.419Z,36.41
2019-03-17T01:06:47.372Z,36.82
2019-03-17T01:07:47.328Z,36.70
2019-03-17T01:08:47.276Z,36.91
2019-03-17T01:09:47.278Z,36.72
2019-03-17T01:10:47.181Z,36.51
2019-03-17T01:11:47.154Z,36.91
2019-03-17T01:12:47.093Z,36.51
2019-03-17T01:13:47.037Z,36.60
2019-03-17T01:14:46.990Z,36.90
2019-03-17T01:15:46.992Z,36.90
2019-03-17T01:16:46.893Z,36.41
2019-03-17T01:17:46.849Z,36.41
2019-03-17T01:18:46.799Z,36.51
2019-03-17T01:19:46.750Z,36.90
2019-03-17T01:20:46.702Z,36.43
2019-03-17T01:21:46.654Z,36.90
2019-03-17T01:22:46.607Z,36.41
2019-03-17T01:23:46.560Z,36.41
2019-03-17T01:24:46.511Z,36.51
2019-03-17T01:25:46.462Z,36.60
2019-03-17T01:26:46.416Z,36.91
2019-03-17T01:27:46.368Z,36.90
2019-03-17T01:28:46.320Z,36.99
2019-03-17T01:29:46.272Z,36.51
2019-03-17T01:30:46.226Z,36.62
2019-03-17T01:31:46.177Z,36.60
2019-03-17T01:32:46.129Z,36.41
2019-03-17T01:33:46.081Z,37.01
2019-03-17T01:34:46.035Z,37.01
2019-03-17T01:35:46.036Z,36.41
2019-03-17T01:36:45.987Z,36.41
2019-03-17T01:37:45.890Z,36.51
2019-03-17T01:38:45.846Z,36.70
2019-03-17T01:39:45.799Z,36.60
2019-03-17T01:40:45.749Z,36.90
2019-03-17T01:41:45.698Z,36.91
2019-03-17T01:42:45.651Z,36.90
2019-03-17T01:43:45.603Z,36.51
2019-03-17T01:44:45.555Z,36.90
2019-03-17T01:45:45.506Z,36.51
2019-03-17T01:46:45.459Z,36.51
2019-03-17T01:47:45.411Z,36.60
2019-03-17T01:48:45.380Z,36.41
2019-03-17T01:49:45.316Z,36.41
2019-03-17T01:50:45.268Z,36.82
2019-03-17T01:51:45.219Z,36.60
2019-03-17T01:52:45.172Z,36.90
2019-03-17T01:53:45.124Z,36.51
2019-03-17T01:54:45.076Z,36.41
2019-03-17T01:55:45.030Z,36.32
2019-03-17T01:56:45.031Z,36.91
2019-03-17T01:57:45.033Z,36.80
2019-03-17T01:58:44.885Z,36.99
2019-03-17T01:59:44.838Z,36.51
2019-03-17T02:00:44.789Z,36.90
2019-03-17T02:01:44.768Z,36.41
2019-03-17T02:02:44.694Z,36.51
2019-03-17T02:03:44.647Z,36.99
2019-03-17T02:04:44.598Z,36.80
2019-03-17T02:05:44.551Z,36.53
2019-03-17T02:06:44.503Z,36.43
2019-03-17T02:07:44.459Z,36.41
2019-03-17T02:08:44.406Z,36.51
2019-03-17T02:09:44.359Z,36.53
2019-03-17T02:10:44.311Z,37.01
2019-03-17T02:11:44.264Z,36.41
2019-03-17T02:12:44.221Z,36.90
2019-03-17T02:13:44.168Z,36.99
2019-03-17T02:14:44.120Z,36.90
2019-03-17T02:15:44.073Z,36.60
2019-03-17T02:16:44.024Z,36.53
2019-03-17T02:17:43.975Z,36.53
2019-03-17T02:18:43.979Z,36.51
2019-03-17T02:19:43.883Z,36.51
2019-03-17T02:20:43.834Z,36.51
2019-03-17T02:21:43.786Z,36.51
2019-03-17T02:22:43.741Z,36.51
2019-03-17T02:23:43.690Z,36.41
2019-03-17T02:24:43.641Z,36.32
2019-03-17T02:25:43.593Z,36.60
2019-03-17T02:26:43.546Z,36.41
2019-03-17T02:27:43.500Z,36.62
2019-03-17T02:28:43.450Z,36.99
2019-03-17T02:29:43.402Z,36.51
2019-03-17T02:30:43.353Z,36.60
2019-03-17T02:31:43.307Z,36.60
2019-03-17T02:32:43.269Z,36.60
2019-03-17T02:33:43.219Z,36.60
2019-03-17T02:34:43.163Z,36.51
2019-03-17T02:35:43.115Z,36.90
2019-03-17T02:36:43.066Z,36.60
2019-03-17T02:37:43.025Z,36.90
2019-03-17T02:38:42.973Z,36.51
2019-03-17T02:39:42.975Z,36.60
2019-03-17T02:40:42.876Z,36.90
2019-03-17T02:41:42.829Z,36.90
2019-03-17T02:42:42.781Z,36.60
2019-03-17T02:43:42.733Z,36.90
2019-03-17T02:44:42.683Z,36.60
2019-03-17T02:45:42.637Z,36.60
2019-03-17T02:46:42.605Z,36.60
2019-03-17T02:47:42.542Z,36.60
2019-03-17T02:48:42.495Z,36.90
2019-03-17T02:49:42.457Z,36.51
2019-03-17T02:50:42.398Z,36.51
2019-03-17T02:51:42.351Z,36.60
2019-03-17T02:52:42.302Z,36.60
2019-03-17T02:53:42.252Z,36.60
2019-03-17T02:54:42.209Z,36.60
2019-03-17T02:55:42.158Z,36.99
2019-03-17T02:56:42.118Z,36.60
2019-03-17T02:57:42.061Z,36.60
2019-03-17T02:58:42.014Z,36.51
2019-03-17T02:59:42.020Z,36.60
2019-03-17T03:00:41.919Z,36.60
2019-03-17T03:01:41.872Z,36.60
2019-03-17T03:02:41.879Z,36.60
2019-03-17T03:03:41.776Z,36.60
2019-03-17T03:04:41.728Z,36.60
2019-03-17T03:05:54.094Z,36.60
2019-03-17T03:06:41.633Z,36.60
2019-03-17T03:07:41.585Z,36.60
2019-03-17T03:08:41.538Z,37.08
2019-03-17T03:09:41.488Z,36.60
2019-03-17T03:10:41.441Z,36.70
2019-03-17T03:11:41.397Z,36.41
2019-03-17T03:12:41.345Z,36.62
2019-03-17T03:13:41.297Z,36.51
2019-03-17T03:14:41.250Z,36.51
2019-03-17T03:15:41.203Z,36.60
2019-03-17T03:16:41.153Z,36.43
2019-03-17T03:17:41.133Z,36.60
2019-03-17T03:18:41.059Z,36.51
2019-03-17T03:19:41.017Z,36.70
2019-03-17T03:20:40.964Z,36.60
2019-03-17T03:21:40.914Z,36.51
2019-03-17T03:22:40.868Z,36.51
2019-03-17T03:23:40.820Z,36.41
2019-03-17T03:24:40.771Z,36.51
2019-03-17T03:25:40.728Z,36.51
2019-03-17T03:26:40.676Z,36.60
2019-03-17T03:27:40.628Z,36.90
2019-03-17T03:28:40.579Z,36.60
2019-03-17T03:29:40.532Z,36.60
2019-03-17T03:30:40.489Z,36.90
2019-03-17T03:31:40.437Z,36.90
2019-03-17T03:32:40.394Z,36.60
2019-03-17T03:33:40.340Z,36.41
2019-03-17T03:34:40.293Z,36.51
2019-03-17T03:35:40.260Z,36.60
2019-03-17T03:36:40.199Z,36.60
2019-03-17T03:37:40.149Z,36.60
2019-03-17T03:38:40.100Z,36.60
2019-03-17T03:39:40.058Z,36.51
2019-03-17T03:40:40.005Z,36.60
2019-03-17T03:41:39.957Z,36.60
2019-03-17T03:42:39.916Z,36.51
2019-03-17T03:43:39.862Z,36.60
2019-03-17T03:44:39.816Z,36.53
2019-03-17T03:45:39.768Z,36.51
2019-03-17T03:46:39.720Z,36.60
2019-03-17T03:47:39.670Z,36.60
2019-03-17T03:48:39.622Z,36.60
2019-03-17T03:49:39.576Z,36.70
2019-03-17T03:50:39.526Z,36.60
2019-03-17T03:51:39.479Z,36.70
2019-03-17T03:52:39.431Z,36.70
2019-03-17T03:53:39.384Z,36.70
2019-03-17T03:54:39.339Z,36.90
2019-03-17T03:55:42.194Z,36.60
2019-03-17T03:56:39.239Z,36.72
2019-03-17T03:57:39.205Z,36.32
2019-03-17T03:58:39.143Z,36.90
2019-03-17T03:59:39.098Z,36.51
2019-03-17T04:00:39.050Z,36.70
2019-03-17T04:01:39.000Z,36.51
2019-03-17T04:02:39.003Z,36.99
2019-03-17T04:03:38.931Z,36.60
2019-03-17T04:04:38.859Z,36.60
2019-03-17T04:05:38.809Z,36.41
2019-03-17T04:06:38.765Z,36.70
2019-03-17T04:07:38.721Z,36.51
2019-03-17T04:08:38.665Z,36.99
2019-03-17T04:09:38.617Z,36.60
2019-03-17T04:10:38.570Z,36.90
2019-03-17T04:11:38.525Z,36.60
2019-03-17T04:12:38.473Z,36.99
2019-03-17T04:13:38.429Z,36.70
2019-03-17T04:14:38.379Z,36.60
2019-03-17T04:15:38.335Z,36.60
2019-03-17T04:16:38.288Z,36.60
2019-03-17T04:17:38.238Z,36.51
2019-03-17T04:18:38.190Z,36.60
2019-03-17T04:19:38.155Z,36.60
2019-03-17T04:20:38.091Z,36.60
2019-03-17T04:21:38.093Z,36.60
2019-03-17T04:22:38.096Z,36.60
2019-03-17T04:23:38.099Z,36.60
2019-03-17T04:24:37.906Z,36.60
2019-03-17T04:25:37.854Z,36.60
2019-03-17T04:26:37.805Z,36.60
2019-03-17T04:27:37.757Z,36.60
2019-03-17T04:28:37.710Z,36.51
2019-03-17T04:29:37.662Z,36.60
2019-03-17T04:30:37.620Z,36.60
2019-03-17T04:31:37.565Z,36.51
2019-03-17T04:32:37.517Z,36.60
2019-03-17T04:33:37.473Z,36.60
2019-03-17T04:34:37.425Z,36.51
2019-03-17T04:35:37.375Z,36.60
2019-03-17T04:36:40.531Z,36.60
2019-03-17T04:37:37.277Z,36.51
2019-03-17T04:38:37.230Z,36.60
2019-03-17T04:39:37.208Z,36.51
2019-03-17T04:40:37.134Z,36.60
2019-03-17T04:41:37.139Z,36.51
2019-03-17T04:42:37.140Z,36.99
2019-03-17T04:43:37.094Z,36.51
2019-03-17T04:44:36.945Z,36.90
2019-03-17T04:45:36.896Z,36.51
2019-03-17T04:46:36.847Z,36.99
2019-03-17T04:47:36.801Z,36.60
2019-03-17T04:48:36.788Z,36.99
2019-03-17T04:49:36.707Z,36.51
2019-03-17T04:50:36.657Z,36.60
2019-03-17T04:51:36.608Z,36.60
2019-03-17T04:52:36.561Z,36.51
2019-03-17T04:53:36.513Z,36.51
2019-03-17T04:54:36.465Z,36.60
2019-03-17T04:55:36.418Z,36.60
2019-03-17T04:56:36.378Z,36.51
2019-03-17T04:57:36.322Z,36.51
2019-03-17T04:58:36.273Z,36.51
2019-03-17T04:59:36.226Z,36.60
2019-03-17T05:00:36.178Z,36.60
2019-03-17T05:01:36.131Z,36.70
2019-03-17T05:02:36.084Z,36.51
2019-03-17T05:03:36.085Z,36.60
2019-03-17T05:04:36.087Z,37.18
2019-03-17T05:05:35.940Z,36.99
2019-03-17T05:06:35.890Z,36.51
2019-03-17T05:07:35.844Z,36.51
2019-03-17T05:08:35.795Z,36.60
2019-03-17T05:09:35.748Z,36.60
2019-03-17T05:10:35.702Z,36.51
2019-03-17T05:11:35.653Z,37.08
2019-03-17T05:12:35.604Z,36.51
2019-03-17T05:13:35.560Z,36.51
2019-03-17T05:14:35.509Z,36.51
2019-03-17T05:15:35.461Z,36.51
2019-03-17T05:16:35.885Z,36.60
2019-03-17T05:17:35.366Z,36.60
2019-03-17T05:18:35.336Z,36.51
2019-03-17T05:19:35.270Z,36.60
2019-03-17T05:20:35.220Z,36.51
2019-03-17T05:21:35.173Z,36.60
2019-03-17T05:22:35.124Z,36.60
2019-03-17T05:23:35.078Z,36.41
2019-03-17T05:24:35.029Z,36.51
2019-03-17T05:25:34.982Z,36.60
2019-03-17T05:26:34.984Z,36.60
2019-03-17T05:27:35.037Z,36.70
2019-03-17T05:28:34.838Z,36.60
2019-03-17T05:29:34.790Z,36.60
2019-03-17T05:30:34.743Z,36.51
2019-03-17T05:31:34.695Z,36.60
2019-03-17T05:32:34.648Z,36.41
2019-03-17T05:33:34.598Z,36.51
2019-03-17T05:34:34.551Z,36.70
2019-03-17T05:35:34.508Z,36.60
2019-03-17T05:36:34.469Z,36.70
2019-03-17T05:37:34.408Z,36.60
2019-03-17T05:38:34.360Z,36.70
2019-03-17T05:39:34.336Z,36.60
2019-03-17T05:40:34.265Z,36.60
2019-03-17T05:41:34.216Z,36.60
2019-03-17T05:42:34.169Z,36.60
2019-03-17T05:43:34.128Z,36.99
2019-03-17T05:44:34.072Z,36.60
2019-03-17T05:45:34.123Z,36.51
2019-03-17T05:46:33.978Z,36.60
2019-03-17T05:47:33.929Z,36.60
2019-03-17T05:48:33.883Z,36.60
2019-03-17T05:49:33.833Z,37.08
2019-03-17T05:50:33.789Z,36.60
2019-03-17T05:51:33.738Z,36.51
2019-03-17T05:52:33.690Z,36.70
2019-03-17T05:53:33.641Z,36.60
2019-03-17T05:54:33.593Z,36.60
2019-03-17T05:55:33.549Z,36.51
2019-03-17T05:56:33.500Z,36.60
2019-03-17T05:57:33.451Z,36.60
2019-03-17T05:58:33.401Z,36.60
2019-03-17T05:59:33.355Z,36.90
2019-03-17T06:00:33.307Z,36.60
2019-03-17T06:01:33.258Z,36.70
2019-03-17T06:02:33.211Z,36.51
2019-03-17T06:03:33.164Z,36.90
2019-03-17T06:04:33.116Z,36.99
2019-03-17T06:05:33.068Z,36.51
2019-03-17T06:06:33.022Z,36.41
2019-03-17T06:07:33.023Z,36.82
2019-03-17T06:08:33.750Z,36.51
2019-03-17T06:09:32.877Z,36.70
2019-03-17T06:10:32.829Z,36.51
2019-03-17T06:11:32.781Z,36.80
2019-03-17T06:12:32.732Z,36.80
2019-03-17T06:13:32.685Z,36.80
2019-03-17T06:14:32.638Z,36.70
2019-03-17T06:15:32.590Z,36.82
2019-03-17T06:16:32.540Z,36.62
2019-03-17T06:17:32.493Z,36.60
2019-03-17T06:18:32.446Z,36.62
2019-03-17T06:19:32.399Z,36.72
2019-03-17T06:20:32.351Z,36.43
2019-03-17T06:21:32.396Z,36.53
2019-03-17T06:22:32.253Z,36.62
2019-03-17T06:23:32.207Z,36.60
2019-03-17T06:24:32.159Z,36.51
2019-03-17T06:25:32.115Z,36.33
2019-03-17T06:26:32.062Z,36.53
2019-03-17T06:27:32.015Z,36.33
2019-03-17T06:28:31.967Z,36.15
2019-03-17T06:29:31.969Z,36.24
2019-03-17T06:30:31.872Z,36.15
2019-03-17T06:31:31.824Z,36.15
2019-03-17T06:32:31.775Z,36.15
2019-03-17T06:33:31.734Z,36.15
2019-03-17T06:34:31.683Z,36.24
2019-03-17T06:35:31.635Z,36.24
2019-03-17T06:36:31.584Z,36.24
2019-03-17T06:37:31.545Z,36.15
2019-03-17T06:38:31.490Z,36.15
2019-03-17T06:39:31.441Z,36.24
2019-03-17T06:40:31.393Z,36.05
2019-03-17T06:41:31.345Z,36.15
2019-03-17T06:42:31.298Z,36.15
2019-03-17T06:43:31.251Z,36.15
2019-03-17T06:44:31.219Z,36.15
2019-03-17T06:45:31.154Z,36.15
2019-03-17T06:46:31.107Z,36.15
2019-03-17T06:47:31.060Z,36.22
2019-03-17T06:48:31.011Z,36.24
2019-03-17T06:49:30.964Z,36.05
2019-03-17T06:50:30.919Z,36.15
2019-03-17T06:51:30.868Z,36.15
2019-03-17T06:52:30.828Z,36.15
2019-03-17T06:53:30.773Z,36.15
2019-03-17T06:54:30.725Z,36.24
2019-03-17T06:55:30.680Z,36.15
2019-03-17T06:56:30.629Z,36.15
2019-03-17T06:57:30.581Z,36.24
2019-03-17T06:58:30.534Z,36.15
2019-03-17T06:59:30.486Z,36.15
2019-03-17T07:00:30.438Z,36.24
2019-03-17T07:01:30.706Z,36.24
2019-03-17T07:02:30.343Z,36.33
2019-03-17T07:03:30.294Z,36.33
2019-03-17T07:04:30.246Z,36.43
2019-03-17T07:05:30.198Z,36.53
2019-03-17T07:06:30.153Z,36.53
2019-03-17T07:07:42.945Z,36.43
2019-03-17T07:08:30.057Z,36.33
2019-03-17T07:09:30.010Z,35.95
2019-03-17T07:10:30.010Z,36.15
2019-03-17T07:11:29.913Z,36.05
2019-03-17T07:12:29.863Z,36.15
2019-03-17T07:13:29.818Z,35.95
2019-03-17T07:14:29.769Z,35.95
2019-03-17T07:15:29.722Z,36.16
2019-03-17T07:16:29.675Z,35.68
2019-03-17T07:17:29.625Z,35.85
2019-03-17T07:18:29.578Z,35.85
2019-03-17T07:19:29.530Z,35.85
2019-03-17T07:20:29.482Z,36.05
2019-03-17T07:21:29.434Z,35.87
2019-03-17T07:22:29.387Z,35.68
2019-03-17T07:23:29.340Z,35.77
2019-03-17T07:24:29.291Z,35.49
2019-03-17T07:25:29.246Z,35.68
2019-03-17T07:26:29.196Z,35.58
2019-03-17T07:27:29.152Z,35.58
2019-03-17T07:28:29.099Z,35.68
2019-03-17T07:29:29.053Z,35.58
2019-03-17T07:30:29.005Z,35.68
2019-03-17T07:31:28.957Z,35.68
2019-03-17T07:32:28.911Z,35.49
2019-03-17T07:33:28.862Z,35.77
2019-03-17T07:34:28.814Z,35.68
2019-03-17T07:35:28.767Z,35.49
2019-03-17T07:36:28.718Z,34.91
2019-03-17T07:37:28.670Z,35.00
2019-03-17T07:38:28.622Z,34.74
2019-03-17T07:39:28.576Z,34.54
2019-03-17T07:40:28.578Z,34.45
2019-03-17T07:41:28.480Z,34.54
2019-03-17T07:42:28.432Z,34.45
2019-03-17T07:43:28.386Z,34.16
2019-03-17T07:44:28.336Z,34.46
2019-03-17T07:45:28.289Z,33.89
2019-03-17T07:46:28.243Z,33.89
2019-03-17T07:47:28.195Z,33.79
2019-03-17T07:48:28.146Z,33.79
2019-03-17T07:49:28.099Z,33.42
2019-03-17T07:50:28.054Z,33.33
2019-03-17T07:51:28.007Z,33.13
2019-03-17T07:52:27.957Z,32.95
2019-03-17T07:53:27.959Z,32.86
2019-03-17T07:54:27.862Z,32.67
2019-03-17T07:55:27.815Z,32.38
2019-03-17T07:56:27.767Z,32.20
2019-03-17T07:57:27.720Z,31.91
2019-03-17T07:58:27.673Z,30.87
2019-03-17T07:59:27.675Z,31.06
2019-03-17T08:00:32.064Z,30.59
2019-03-17T08:01:27.531Z,30.21
2019-03-17T08:02:27.484Z,29.72
2019-03-17T08:03:27.438Z,29.82
2019-03-17T08:04:27.391Z,29.63
2019-03-17T08:05:27.344Z,29.82
2019-03-17T08:06:27.295Z,30.01
2019-03-17T08:07:27.249Z,30.21
2019-03-17T08:08:27.214Z,30.30
2019-03-17T08:09:27.154Z,30.30
2019-03-17T08:10:27.108Z,30.11
2019-03-17T08:11:27.062Z,30.11
2019-03-17T08:12:27.014Z,29.82
2019-03-17T08:13:26.968Z,30.21
2019-03-17T08:14:26.921Z,30.11
2019-03-17T08:15:26.876Z,30.11
2019-03-17T08:16:26.827Z,29.91
2019-03-17T08:17:26.780Z,30.01
2019-03-17T08:18:26.734Z,29.55
2019-03-17T08:19:26.689Z,29.93
2019-03-17T08:20:26.716Z,29.83
2019-03-17T08:21:26.597Z,29.64
2019-03-17T08:22:26.550Z,29.55
2019-03-17T08:23:26.501Z,29.83
2019-03-17T08:24:26.462Z,29.83
2019-03-17T08:25:26.406Z,29.72
2019-03-17T08:26:26.361Z,30.01
2019-03-17T08:27:26.315Z,29.91
2019-03-17T08:28:26.268Z,29.91
2019-03-17T08:29:26.221Z,29.82
2019-03-17T08:30:26.176Z,30.21
2019-03-17T08:31:26.131Z,29.91
2019-03-17T08:32:26.082Z,30.21
2019-03-17T08:33:26.037Z,29.72
2019-03-17T08:34:25.989Z,30.30
2019-03-17T08:35:25.943Z,30.21
2019-03-17T08:36:25.941Z,29.72
2019-03-17T08:37:25.848Z,29.91
2019-03-17T08:38:25.806Z,29.91
2019-03-17T08:39:25.757Z,30.11
2019-03-17T08:40:25.711Z,29.72
2019-03-17T08:41:25.666Z,30.11
2019-03-17T08:42:25.616Z,29.91
2019-03-17T08:43:25.576Z,30.10
2019-03-17T08:44:25.528Z,30.19
2019-03-17T08:45:25.476Z,30.48
2019-03-17T08:46:25.430Z,30.38
2019-03-17T08:47:25.384Z,30.00
2019-03-17T08:48:25.336Z,30.48
2019-03-17T08:49:25.309Z,30.67
2019-03-17T08:50:25.243Z,30.77
2019-03-17T08:51:25.304Z,30.87
2019-03-17T08:52:25.150Z,31.06
2019-03-17T08:53:25.103Z,30.77
2019-03-17T08:54:25.058Z,30.87
2019-03-17T08:55:25.011Z,30.87
2019-03-17T08:56:24.964Z,30.76
2019-03-17T08:57:24.926Z,31.43
2019-03-17T08:58:24.871Z,31.14
2019-03-17T08:59:24.823Z,30.85
2019-03-17T09:00:24.777Z,31.04
2019-03-17T09:01:24.731Z,31.14
2019-03-17T09:02:24.684Z,31.43
2019-03-17T09:03:24.640Z,31.52
2019-03-17T09:04:24.591Z,31.52
2019-03-17T09:05:24.543Z,31.14
2019-03-17T09:06:24.498Z,30.85
2019-03-17T09:07:24.519Z,31.24
2019-03-17T09:08:34.169Z,31.24
2019-03-17T09:09:24.356Z,31.43
2019-03-17T09:10:24.310Z,30.66
2019-03-17T09:11:24.264Z,30.94
2019-03-17T09:12:24.216Z,30.76
2019-03-17T09:13:24.171Z,30.85
2019-03-17T09:14:24.125Z,31.06
2019-03-17T09:15:24.076Z,30.85
2019-03-17T09:16:24.031Z,30.85
2019-03-17T09:17:23.982Z,30.85
2019-03-17T09:18:26.824Z,30.56
2019-03-17T09:19:23.890Z,30.94
2019-03-17T09:20:23.842Z,30.66
2019-03-17T09:21:23.804Z,30.85
2019-03-17T09:22:23.749Z,30.85
2019-03-17T09:23:23.701Z,31.33
2019-03-17T09:24:23.654Z,31.14
2019-03-17T09:25:23.608Z,31.24
2019-03-17T09:26:23.562Z,30.94
2019-03-17T09:27:23.515Z,31.43
2019-03-17T09:28:23.467Z,31.43
2019-03-17T09:29:23.422Z,31.52
2019-03-17T09:30:23.374Z,31.43
2019-03-17T09:31:23.328Z,31.52
2019-03-17T09:32:23.282Z,31.52
2019-03-17T09:33:23.233Z,31.52
2019-03-17T09:34:23.186Z,31.90
2019-03-17T09:35:23.141Z,31.70
2019-03-17T09:36:23.093Z,31.72
2019-03-17T09:37:23.047Z,31.70
2019-03-17T09:38:23.000Z,31.70
2019-03-17T09:39:23.003Z,31.70
2019-03-17T09:40:22.906Z,31.70
2019-03-17T09:41:22.858Z,31.99
2019-03-17T09:42:22.816Z,31.99
2019-03-17T09:43:22.768Z,31.81
2019-03-17T09:44:22.718Z,31.91
2019-03-17T09:45:22.671Z,32.09
2019-03-17T09:46:22.626Z,31.90
2019-03-17T09:47:22.579Z,32.10
2019-03-17T09:48:22.530Z,31.90
2019-03-17T09:49:22.485Z,31.70
2019-03-17T09:50:22.439Z,31.99
2019-03-17T09:51:22.392Z,31.80
2019-03-17T09:52:22.354Z,31.70
2019-03-17T09:53:22.298Z,31.90
2019-03-17T09:54:22.252Z,31.90
2019-03-17T09:55:22.212Z,32.18
2019-03-17T09:56:22.157Z,32.18
2019-03-17T09:57:22.111Z,32.09
2019-03-17T09:58:22.065Z,32.09
2019-03-17T09:59:22.017Z,32.09
2019-03-17T10:00:21.969Z,32.09
2019-03-17T10:01:21.923Z,31.90
2019-03-17T10:02:21.877Z,32.18
2019-03-17T10:03:21.830Z,31.90
2019-03-17T10:04:21.782Z,31.99
2019-03-17T10:05:21.735Z,32.09
2019-03-17T10:06:21.689Z,32.09
2019-03-17T10:07:21.644Z,31.99
2019-03-17T10:08:21.595Z,32.28
2019-03-17T10:09:21.548Z,32.38
2019-03-17T10:10:21.502Z,32.28
2019-03-17T10:11:21.455Z,32.28
2019-03-17T10:12:21.457Z,32.38
2019-03-17T10:13:21.361Z,32.38
2019-03-17T10:14:21.314Z,32.36
2019-03-17T10:15:21.272Z,32.57
2019-03-17T10:16:21.219Z,32.67
2019-03-17T10:17:21.172Z,32.56
2019-03-17T10:18:21.129Z,32.57
2019-03-17T10:19:21.078Z,32.65
2019-03-17T10:20:21.035Z,32.46
2019-03-17T10:21:20.988Z,32.46
2019-03-17T10:22:20.938Z,32.65
2019-03-17T10:23:20.942Z,33.23
2019-03-17T10:24:20.844Z,33.13
2019-03-17T10:25:20.796Z,32.75
2019-03-17T10:26:20.751Z,32.84
2019-03-17T10:27:20.704Z,32.84
2019-03-17T10:28:20.656Z,32.56
2019-03-17T10:29:20.609Z,32.84
2019-03-17T10:30:20.562Z,33.13
2019-03-17T10:31:20.516Z,33.13
2019-03-17T10:32:20.469Z,32.94
2019-03-17T10:33:20.421Z,33.13
2019-03-17T10:34:20.374Z,33.13
2019-03-17T10:35:20.328Z,33.31
2019-03-17T10:36:20.280Z,33.40
2019-03-17T10:37:20.233Z,33.31
2019-03-17T10:38:20.186Z,33.31
2019-03-17T10:39:20.141Z,33.40
2019-03-17T10:40:20.091Z,33.40
2019-03-17T10:41:20.045Z,33.59
2019-03-17T10:42:19.998Z,33.40
2019-03-17T10:43:19.952Z,33.59
2019-03-17T10:44:19.904Z,33.50
2019-03-17T10:45:19.857Z,33.31
2019-03-17T10:46:19.811Z,33.31
2019-03-17T10:47:19.763Z,33.33
2019-03-17T10:48:19.715Z,33.33
2019-03-17T10:49:19.671Z,33.51
2019-03-17T10:50:19.627Z,33.42
2019-03-17T10:51:19.574Z,33.03
2019-03-17T10:52:19.527Z,33.13
2019-03-17T10:53:19.480Z,33.23
2019-03-17T10:54:19.433Z,33.13
2019-03-17T10:55:19.387Z,33.23
2019-03-17T10:56:19.339Z,33.13
2019-03-17T10:57:19.291Z,33.13
2019-03-17T10:58:19.244Z,33.13
2019-03-17T10:59:19.203Z,33.42
2019-03-17T11:00:19.152Z,33.13
2019-03-17T11:01:19.157Z,32.75
2019-03-17T11:02:19.057Z,32.56
2019-03-17T11:03:19.010Z,32.75
2019-03-17T11:04:18.963Z,32.75
2019-03-17T11:05:18.918Z,32.86
2019-03-17T11:06:18.869Z,32.67
2019-03-17T11:07:18.822Z,32.56
2019-03-17T11:08:18.774Z,32.75
2019-03-17T11:09:25.224Z,32.75
2019-03-17T11:10:18.688Z,32.84
2019-03-17T11:11:18.645Z,32.75
2019-03-17T11:12:18.585Z,32.94
2019-03-17T11:13:18.539Z,32.84
2019-03-17T11:14:18.492Z,32.56
2019-03-17T11:15:18.446Z,32.65
2019-03-17T11:16:18.398Z,32.65
2019-03-17T11:17:18.354Z,32.65
2019-03-17T11:18:18.305Z,32.94
2019-03-17T11:19:18.258Z,32.65
2019-03-17T11:20:18.210Z,32.84
2019-03-17T11:21:18.164Z,33.23
2019-03-17T11:22:18.121Z,33.23
2019-03-17T11:23:18.069Z,33.33
2019-03-17T11:24:18.023Z,33.03
2019-03-17T11:25:17.982Z,33.23
2019-03-17T11:26:17.981Z,33.13
2019-03-17T11:27:17.883Z,33.13
2019-03-17T11:28:17.887Z,33.33
2019-03-17T11:29:17.787Z,33.33
2019-03-17T11:30:17.739Z,33.03
2019-03-17T11:31:17.695Z,33.13
2019-03-17T11:32:17.646Z,33.03
2019-03-17T11:33:17.600Z,33.13
2019-03-17T11:34:17.552Z,33.13
2019-03-17T11:35:17.504Z,33.13
2019-03-17T11:36:17.457Z,33.61
2019-03-17T11:37:17.411Z,33.51
2019-03-17T11:38:17.367Z,33.40
2019-03-17T11:39:17.318Z,33.42
2019-03-17T11:40:17.271Z,33.33
2019-03-17T11:41:17.222Z,33.40
2019-03-17T11:42:17.176Z,33.51
2019-03-17T11:43:17.128Z,33.42
2019-03-17T11:44:17.081Z,33.31
2019-03-17T11:45:17.034Z,33.42
2019-03-17T11:46:16.987Z,33.23
2019-03-17T11:47:16.990Z,33.33
2019-03-17T11:48:16.891Z,33.59
2019-03-17T11:49:16.846Z,33.59
2019-03-17T11:50:16.803Z,33.59
2019-03-17T11:51:16.751Z,33.40
2019-03-17T11:52:16.703Z,33.59
2019-03-17T11:53:16.658Z,33.50
2019-03-17T11:54:16.610Z,33.59
2019-03-17T11:55:16.563Z,34.08
2019-03-17T11:56:16.517Z,33.89
2019-03-17T11:57:16.468Z,34.08
2019-03-17T11:58:16.422Z,33.89
2019-03-17T11:59:16.377Z,34.08
2019-03-17T12:00:16.328Z,33.69
2019-03-17T12:01:17.996Z,33.89
2019-03-17T12:02:25.977Z,33.79
2019-03-17T12:03:16.187Z,33.79
2019-03-17T12:04:16.139Z,33.89
2019-03-17T12:05:16.092Z,33.79
2019-03-17T12:06:16.045Z,33.98
2019-03-17T12:07:15.998Z,34.27
2019-03-17T12:08:15.956Z,34.08
2019-03-17T12:09:28.170Z,33.98
2019-03-17T12:10:15.858Z,34.08
2019-03-17T12:11:15.813Z,33.98
2019-03-17T12:12:15.762Z,34.08
2019-03-17T12:13:15.715Z,33.89
2019-03-17T12:14:15.667Z,34.08
2019-03-17T12:15:15.621Z,34.08
2019-03-17T12:16:15.573Z,33.98
2019-03-17T12:17:15.527Z,33.98
2019-03-17T12:18:15.479Z,33.79
2019-03-17T12:19:15.436Z,34.27
2019-03-17T12:20:15.385Z,34.08
2019-03-17T12:21:15.338Z,33.89
2019-03-17T12:22:15.290Z,34.17
2019-03-17T12:23:15.243Z,34.25
2019-03-17T12:24:15.196Z,34.35
2019-03-17T12:25:15.152Z,34.17
2019-03-17T12:26:15.104Z,34.08
2019-03-17T12:27:15.056Z,34.37
2019-03-17T12:28:15.006Z,34.37
2019-03-17T12:29:14.960Z,34.25
2019-03-17T12:30:14.914Z,34.27
2019-03-17T12:31:14.867Z,34.25
2019-03-17T12:32:14.819Z,34.46
2019-03-17T12:33:14.772Z,34.25
2019-03-17T12:34:14.725Z,34.45
2019-03-17T12:35:14.678Z,34.25
2019-03-17T12:36:14.631Z,34.35
2019-03-17T12:37:14.585Z,34.54
2019-03-17T12:38:14.537Z,34.45
2019-03-17T12:39:14.489Z,34.25
2019-03-17T12:40:14.442Z,34.35
2019-03-17T12:41:14.394Z,34.17
2019-03-17T12:42:14.348Z,34.46
2019-03-17T12:43:14.301Z,34.37
2019-03-17T12:44:14.253Z,34.35
2019-03-17T12:45:14.205Z,34.27
2019-03-17T12:46:14.159Z,34.54
2019-03-17T12:47:14.112Z,34.74
2019-03-17T12:48:14.063Z,34.45
2019-03-17T12:49:14.017Z,34.54
2019-03-17T12:50:13.970Z,34.74
2019-03-17T12:51:13.973Z,34.64
2019-03-17T12:52:13.874Z,34.45